sensor_id;sensor_type;location;lat;lon;timestamp;temperature;humidity
67557;DHT22;54387;53.526;49.300;2022-12-10T00:01:46;-7.40;51.40
67557;DHT22;54387;53.526;49.300;2022-12-10T00:04:13;-7.40;51.30
67557;DHT22;54387;53.526;49.300;2022-12-10T00:06:40;-7.40;51.30
67557;DHT22;54387;53.526;49.300;2022-12-10T00:09:07;-7.30;51.30
67557;DHT22;54387;53.526;49.300;2022-12-10T00:11:34;-7.30;51.30
67557;DHT22;54387;53.526;49.300;2022-12-10T00:14:00;-7.30;51.10
67557;DHT22;54387;53.526;49.300;2022-12-10T00:16:28;-7.30;50.90
67557;DHT22;54387;53.526;49.300;2022-12-10T00:18:54;-7.30;50.90
67557;DHT22;54387;53.526;49.300;2022-12-10T00:21:21;-7.30;50.90
67557;DHT22;54387;53.526;49.300;2022-12-10T00:23:47;-7.30;51.00
67557;DHT22;54387;53.526;49.300;2022-12-10T00:26:16;-7.30;51.00
67557;DHT22;54387;53.526;49.300;2022-12-10T00:28:42;-7.30;50.60
67557;DHT22;54387;53.526;49.300;2022-12-10T00:31:10;-7.30;50.40
67557;DHT22;54387;53.526;49.300;2022-12-10T00:33:36;-7.20;50.20
67557;DHT22;54387;53.526;49.300;2022-12-10T00:36:03;-7.30;49.90
67557;DHT22;54387;53.526;49.300;2022-12-10T00:38:30;-7.30;50.10
67557;DHT22;54387;53.526;49.300;2022-12-10T00:40:56;-7.40;49.90
67557;DHT22;54387;53.526;49.300;2022-12-10T00:43:22;-7.40;50.20
67557;DHT22;54387;53.526;49.300;2022-12-10T00:45:48;-7.30;50.30
67557;DHT22;54387;53.526;49.300;2022-12-10T00:48:14;-7.30;50.20
67557;DHT22;54387;53.526;49.300;2022-12-10T00:50:40;-7.40;50.00
67557;DHT22;54387;53.526;49.300;2022-12-10T00:53:06;-7.40;50.00
67557;DHT22;54387;53.526;49.300;2022-12-10T00:55:32;-7.40;50.20
67557;DHT22;54387;53.526;49.300;2022-12-10T00:57:58;-7.30;50.40
67557;DHT22;54387;53.526;49.300;2022-12-10T01:00:24;-7.30;50.20
67557;DHT22;54387;53.526;49.300;2022-12-10T01:02:50;-7.30;50.20
67557;DHT22;54387;53.526;49.300;2022-12-10T01:05:16;-7.20;50.30
67557;DHT22;54387;53.526;49.300;2022-12-10T01:07:42;-7.20;50.30
67557;DHT22;54387;53.526;49.300;2022-12-10T01:10:08;-7.20;50.10
67557;DHT22;54387;53.526;49.300;2022-12-10T01:12:34;-7.20;50.20
67557;DHT22;54387;53.526;49.300;2022-12-10T01:15:00;-7.20;50.40
67557;DHT22;54387;53.526;49.300;2022-12-10T01:17:26;-7.20;50.50
67557;DHT22;54387;53.526;49.300;2022-12-10T01:19:52;-7.30;50.50
67557;DHT22;54387;53.526;49.300;2022-12-10T01:22:18;-7.20;50.80
67557;DHT22;54387;53.526;49.300;2022-12-10T01:24:44;-7.20;51.80
67557;DHT22;54387;53.526;49.300;2022-12-10T01:27:10;-7.20;51.00
67557;DHT22;54387;53.526;49.300;2022-12-10T01:29:36;-7.30;50.90
67557;DHT22;54387;53.526;49.300;2022-12-10T01:32:03;-7.30;50.80
67557;DHT22;54387;53.526;49.300;2022-12-10T01:34:29;-7.30;51.00
67557;DHT22;54387;53.526;49.300;2022-12-10T01:36:56;-7.20;50.90
67557;DHT22;54387;53.526;49.300;2022-12-10T01:39:22;-7.20;50.70
67557;DHT22;54387;53.526;49.300;2022-12-10T01:41:53;-7.20;50.60
67557;DHT22;54387;53.526;49.300;2022-12-10T01:46:46;-7.20;50.20
67557;DHT22;54387;53.526;49.300;2022-12-10T01:49:13;-7.20;50.20
67557;DHT22;54387;53.526;49.300;2022-12-10T01:51:41;-7.20;50.30
67557;DHT22;54387;53.526;49.300;2022-12-10T01:54:09;-7.10;50.40
67557;DHT22;54387;53.526;49.300;2022-12-10T01:56:37;-7.10;50.00
67557;DHT22;54387;53.526;49.300;2022-12-10T01:59:04;-7.10;49.90
67557;DHT22;54387;53.526;49.300;2022-12-10T02:06:50;-7.00;49.90
67557;DHT22;54387;53.526;49.300;2022-12-10T02:09:21;-7.00;49.90
67557;DHT22;54387;53.526;49.300;2022-12-10T02:14:38;-7.00;49.50
67557;DHT22;54387;53.526;49.300;2022-12-10T02:17:09;-7.00;49.40
67557;DHT22;54387;53.526;49.300;2022-12-10T02:22:08;-7.00;49.30
67557;DHT22;54387;53.526;49.300;2022-12-10T02:24:35;-7.00;49.10
67557;DHT22;54387;53.526;49.300;2022-12-10T02:29:28;-7.00;49.20
67557;DHT22;54387;53.526;49.300;2022-12-10T02:32:18;-7.10;48.90
67557;DHT22;54387;53.526;49.300;2022-12-10T02:34:46;-7.10;48.60
67557;DHT22;54387;53.526;49.300;2022-12-10T02:37:29;-7.10;48.70
67557;DHT22;54387;53.526;49.300;2022-12-10T02:39:59;-7.10;48.60
67557;DHT22;54387;53.526;49.300;2022-12-10T02:42:27;-7.10;48.20
67557;DHT22;54387;53.526;49.300;2022-12-10T02:44:55;-7.10;48.20
67557;DHT22;54387;53.526;49.300;2022-12-10T02:47:22;-7.20;48.30
67557;DHT22;54387;53.526;49.300;2022-12-10T02:49:49;-7.20;48.50
67557;DHT22;54387;53.526;49.300;2022-12-10T02:52:17;-7.10;48.70
67557;DHT22;54387;53.526;49.300;2022-12-10T02:54:45;-7.20;48.30
67557;DHT22;54387;53.526;49.300;2022-12-10T02:57:14;-7.20;48.30
67557;DHT22;54387;53.526;49.300;2022-12-10T03:02:15;-7.20;48.50
67557;DHT22;54387;53.526;49.300;2022-12-10T03:04:45;-7.20;48.50
67557;DHT22;54387;53.526;49.300;2022-12-10T03:07:18;-7.10;48.30
67557;DHT22;54387;53.526;49.300;2022-12-10T03:09:51;-7.10;48.40
67557;DHT22;54387;53.526;49.300;2022-12-10T03:12:22;-7.10;48.20
67557;DHT22;54387;53.526;49.300;2022-12-10T03:14:51;-7.10;48.20
67557;DHT22;54387;53.526;49.300;2022-12-10T03:17:17;-7.10;47.90
67557;DHT22;54387;53.526;49.300;2022-12-10T03:19:45;-7.10;47.60
67557;DHT22;54387;53.526;49.300;2022-12-10T03:22:13;-7.10;47.70
67557;DHT22;54387;53.526;49.300;2022-12-10T03:24:40;-7.10;47.80
67557;DHT22;54387;53.526;49.300;2022-12-10T03:27:08;-7.10;47.80
67557;DHT22;54387;53.526;49.300;2022-12-10T03:29:36;-7.10;47.50
67557;DHT22;54387;53.526;49.300;2022-12-10T03:32:04;-7.20;47.40
67557;DHT22;54387;53.526;49.300;2022-12-10T03:34:31;-7.20;47.70
67557;DHT22;54387;53.526;49.300;2022-12-10T03:36:57;-7.30;48.00
67557;DHT22;54387;53.526;49.300;2022-12-10T03:39:24;-7.30;48.40
67557;DHT22;54387;53.526;49.300;2022-12-10T03:41:51;-7.40;48.40
67557;DHT22;54387;53.526;49.300;2022-12-10T03:44:27;-7.40;48.60
67557;DHT22;54387;53.526;49.300;2022-12-10T03:46:54;-7.40;48.60
67557;DHT22;54387;53.526;49.300;2022-12-10T03:49:20;-7.50;48.70
67557;DHT22;54387;53.526;49.300;2022-12-10T03:51:46;-7.50;49.00
67557;DHT22;54387;53.526;49.300;2022-12-10T03:54:12;-7.50;49.10
67557;DHT22;54387;53.526;49.300;2022-12-10T03:56:38;-7.50;49.10
67557;DHT22;54387;53.526;49.300;2022-12-10T03:59:04;-7.50;49.20
67557;DHT22;54387;53.526;49.300;2022-12-10T04:01:30;-7.60;49.40
67557;DHT22;54387;53.526;49.300;2022-12-10T04:03:56;-7.60;49.60
67557;DHT22;54387;53.526;49.300;2022-12-10T04:06:22;-7.60;49.80
67557;DHT22;54387;53.526;49.300;2022-12-10T04:08:48;-7.60;49.70
67557;DHT22;54387;53.526;49.300;2022-12-10T04:11:15;-7.60;49.70
67557;DHT22;54387;53.526;49.300;2022-12-10T04:13:41;-7.60;49.80
67557;DHT22;54387;53.526;49.300;2022-12-10T04:16:26;-7.60;49.70
67557;DHT22;54387;53.526;49.300;2022-12-10T04:18:57;-7.60;49.60
67557;DHT22;54387;53.526;49.300;2022-12-10T04:21:23;-7.60;49.80
67557;DHT22;54387;53.526;49.300;2022-12-10T04:24:09;-7.60;49.90
67557;DHT22;54387;53.526;49.300;2022-12-10T04:26:54;-7.60;49.90
67557;DHT22;54387;53.526;49.300;2022-12-10T04:29:22;-7.70;49.70
67557;DHT22;54387;53.526;49.300;2022-12-10T04:31:48;-7.70;49.70
67557;DHT22;54387;53.526;49.300;2022-12-10T04:34:14;-7.70;49.80
67557;DHT22;54387;53.526;49.300;2022-12-10T04:36:40;-7.70;49.90
67557;DHT22;54387;53.526;49.300;2022-12-10T04:39:07;-7.70;50.00
67557;DHT22;54387;53.526;49.300;2022-12-10T04:41:33;-7.70;50.00
67557;DHT22;54387;53.526;49.300;2022-12-10T04:43:59;-7.70;50.00
67557;DHT22;54387;53.526;49.300;2022-12-10T04:46:25;-7.70;50.00
67557;DHT22;54387;53.526;49.300;2022-12-10T04:48:53;-7.80;50.10
67557;DHT22;54387;53.526;49.300;2022-12-10T04:51:19;-7.80;50.30
67557;DHT22;54387;53.526;49.300;2022-12-10T04:53:45;-7.70;50.30
67557;DHT22;54387;53.526;49.300;2022-12-10T04:56:11;-7.80;50.00
67557;DHT22;54387;53.526;49.300;2022-12-10T04:58:37;-7.80;50.10
67557;DHT22;54387;53.526;49.300;2022-12-10T05:01:04;-7.80;50.30
67557;DHT22;54387;53.526;49.300;2022-12-10T05:03:30;-7.80;50.30
67557;DHT22;54387;53.526;49.300;2022-12-10T05:06:03;-7.90;50.20
67557;DHT22;54387;53.526;49.300;2022-12-10T05:08:30;-7.80;50.20
67557;DHT22;54387;53.526;49.300;2022-12-10T05:11:06;-7.80;50.10
67557;DHT22;54387;53.526;49.300;2022-12-10T05:13:32;-7.70;50.20
67557;DHT22;54387;53.526;49.300;2022-12-10T05:16:00;-7.70;50.10
67557;DHT22;54387;53.526;49.300;2022-12-10T05:18:27;-7.60;50.10
67557;DHT22;54387;53.526;49.300;2022-12-10T05:20:53;-7.60;50.10
67557;DHT22;54387;53.526;49.300;2022-12-10T05:23:19;-7.60;50.00
67557;DHT22;54387;53.526;49.300;2022-12-10T05:26:27;-7.50;50.20
67557;DHT22;54387;53.526;49.300;2022-12-10T05:28:47;-7.60;50.20
67557;DHT22;54387;53.526;49.300;2022-12-10T05:31:15;-7.50;50.40
67557;DHT22;54387;53.526;49.300;2022-12-10T05:33:41;-7.50;50.30
67557;DHT22;54387;53.526;49.300;2022-12-10T05:36:07;-7.50;50.30
67557;DHT22;54387;53.526;49.300;2022-12-10T05:38:34;-7.40;50.00
67557;DHT22;54387;53.526;49.300;2022-12-10T05:41:04;-7.50;49.90
67557;DHT22;54387;53.526;49.300;2022-12-10T05:43:30;-7.40;50.00
67557;DHT22;54387;53.526;49.300;2022-12-10T05:46:00;-7.30;50.00
67557;DHT22;54387;53.526;49.300;2022-12-10T05:48:26;-7.20;50.10
67557;DHT22;54387;53.526;49.300;2022-12-10T05:50:54;-7.20;49.70
67557;DHT22;54387;53.526;49.300;2022-12-10T05:53:20;-7.10;49.60
67557;DHT22;54387;53.526;49.300;2022-12-10T05:55:46;-7.20;49.50
67557;DHT22;54387;53.526;49.300;2022-12-10T05:58:12;-7.10;49.30
67557;DHT22;54387;53.526;49.300;2022-12-10T06:00:39;-7.20;49.10
67557;DHT22;54387;53.526;49.300;2022-12-10T06:03:06;-7.20;49.10
67557;DHT22;54387;53.526;49.300;2022-12-10T06:05:39;-7.30;49.00
67557;DHT22;54387;53.526;49.300;2022-12-10T06:08:05;-7.30;49.10
67557;DHT22;54387;53.526;49.300;2022-12-10T06:10:35;-7.30;49.00
67557;DHT22;54387;53.526;49.300;2022-12-10T06:13:02;-7.30;49.10
67557;DHT22;54387;53.526;49.300;2022-12-10T06:15:29;-7.30;49.10
67557;DHT22;54387;53.526;49.300;2022-12-10T06:17:55;-7.30;49.20
67557;DHT22;54387;53.526;49.300;2022-12-10T06:20:22;-7.30;50.20
67557;DHT22;54387;53.526;49.300;2022-12-10T06:22:48;-7.20;49.40
67557;DHT22;54387;53.526;49.300;2022-12-10T06:25:14;-7.10;49.50
67557;DHT22;54387;53.526;49.300;2022-12-10T06:27:40;-7.10;49.60
67557;DHT22;54387;53.526;49.300;2022-12-10T06:30:06;-7.10;49.60
67557;DHT22;54387;53.526;49.300;2022-12-10T06:32:32;-7.10;49.60
67557;DHT22;54387;53.526;49.300;2022-12-10T06:34:58;-7.10;49.70
67557;DHT22;54387;53.526;49.300;2022-12-10T06:37:24;-7.10;49.80
67557;DHT22;54387;53.526;49.300;2022-12-10T06:39:51;-7.20;50.00
67557;DHT22;54387;53.526;49.300;2022-12-10T06:42:18;-7.30;50.10
67557;DHT22;54387;53.526;49.300;2022-12-10T06:44:44;-7.30;50.20
67557;DHT22;54387;53.526;49.300;2022-12-10T06:47:11;-7.30;50.30
67557;DHT22;54387;53.526;49.300;2022-12-10T06:49:37;-7.20;50.50
67557;DHT22;54387;53.526;49.300;2022-12-10T06:52:03;-7.20;50.30
67557;DHT22;54387;53.526;49.300;2022-12-10T06:54:29;-7.20;50.00
67557;DHT22;54387;53.526;49.300;2022-12-10T06:56:56;-7.20;49.90
67557;DHT22;54387;53.526;49.300;2022-12-10T06:59:22;-7.10;51.00
67557;DHT22;54387;53.526;49.300;2022-12-10T07:01:48;-7.10;49.80
67557;DHT22;54387;53.526;49.300;2022-12-10T07:04:14;-7.10;49.60
67557;DHT22;54387;53.526;49.300;2022-12-10T07:06:40;-7.10;49.70
67557;DHT22;54387;53.526;49.300;2022-12-10T07:09:06;-7.00;49.60
67557;DHT22;54387;53.526;49.300;2022-12-10T07:11:32;-7.00;49.40
67557;DHT22;54387;53.526;49.300;2022-12-10T07:13:59;-7.00;49.20
67557;DHT22;54387;53.526;49.300;2022-12-10T07:16:26;-7.00;49.00
67557;DHT22;54387;53.526;49.300;2022-12-10T07:18:52;-6.90;49.00
67557;DHT22;54387;53.526;49.300;2022-12-10T07:21:34;-6.80;49.00
67557;DHT22;54387;53.526;49.300;2022-12-10T07:24:02;-6.70;48.90
67557;DHT22;54387;53.526;49.300;2022-12-10T07:26:29;-6.70;48.30
67557;DHT22;54387;53.526;49.300;2022-12-10T07:28:56;-6.60;48.30
67557;DHT22;54387;53.526;49.300;2022-12-10T07:31:22;-6.60;48.30
67557;DHT22;54387;53.526;49.300;2022-12-10T07:33:48;-6.50;48.50
67557;DHT22;54387;53.526;49.300;2022-12-10T07:36:14;-6.50;48.30
67557;DHT22;54387;53.526;49.300;2022-12-10T07:38:40;-6.40;48.30
67557;DHT22;54387;53.526;49.300;2022-12-10T07:41:07;-6.40;48.30
67557;DHT22;54387;53.526;49.300;2022-12-10T07:43:38;-6.20;48.40
67557;DHT22;54387;53.526;49.300;2022-12-10T07:46:05;-6.20;48.00
67557;DHT22;54387;53.526;49.300;2022-12-10T07:48:32;-6.20;47.70
67557;DHT22;54387;53.526;49.300;2022-12-10T07:50:59;-6.20;47.70
67557;DHT22;54387;53.526;49.300;2022-12-10T07:53:30;-6.20;47.70
67557;DHT22;54387;53.526;49.300;2022-12-10T07:55:57;-6.20;47.70
67557;DHT22;54387;53.526;49.300;2022-12-10T07:58:23;-6.20;47.80
67557;DHT22;54387;53.526;49.300;2022-12-10T08:00:50;-6.20;47.80
67557;DHT22;54387;53.526;49.300;2022-12-10T08:03:16;-6.30;47.90
67557;DHT22;54387;53.526;49.300;2022-12-10T08:05:42;-6.30;47.80
67557;DHT22;54387;53.526;49.300;2022-12-10T08:08:08;-6.20;47.80
67557;DHT22;54387;53.526;49.300;2022-12-10T08:10:35;-6.20;47.40
67557;DHT22;54387;53.526;49.300;2022-12-10T08:13:01;-6.30;47.00
67557;DHT22;54387;53.526;49.300;2022-12-10T08:15:27;-6.30;47.00
67557;DHT22;54387;53.526;49.300;2022-12-10T08:17:54;-6.30;47.10
67557;DHT22;54387;53.526;49.300;2022-12-10T08:20:20;-6.20;47.30
67557;DHT22;54387;53.526;49.300;2022-12-10T08:22:46;-6.00;47.40
67557;DHT22;54387;53.526;49.300;2022-12-10T08:25:12;-6.00;47.00
67557;DHT22;54387;53.526;49.300;2022-12-10T08:27:38;-5.90;46.80
67557;DHT22;54387;53.526;49.300;2022-12-10T08:30:05;-5.90;46.60
67557;DHT22;54387;53.526;49.300;2022-12-10T08:32:31;-5.80;46.30
67557;DHT22;54387;53.526;49.300;2022-12-10T08:34:57;-5.70;46.30
67557;DHT22;54387;53.526;49.300;2022-12-10T08:37:23;-5.60;46.00
67557;DHT22;54387;53.526;49.300;2022-12-10T08:39:49;-5.60;45.80
67557;DHT22;54387;53.526;49.300;2022-12-10T08:42:15;-5.60;45.60
67557;DHT22;54387;53.526;49.300;2022-12-10T08:44:41;-5.50;45.90
67557;DHT22;54387;53.526;49.300;2022-12-10T08:47:07;-5.40;46.00
67557;DHT22;54387;53.526;49.300;2022-12-10T08:49:33;-5.30;45.40
67557;DHT22;54387;53.526;49.300;2022-12-10T08:51:59;-5.20;45.20
67557;DHT22;54387;53.526;49.300;2022-12-10T08:54:25;-5.10;44.90
67557;DHT22;54387;53.526;49.300;2022-12-10T08:56:51;-5.10;45.00
67557;DHT22;54387;53.526;49.300;2022-12-10T08:59:17;-5.00;45.30
67557;DHT22;54387;53.526;49.300;2022-12-10T09:01:43;-5.00;45.20
67557;DHT22;54387;53.526;49.300;2022-12-10T09:04:09;-4.90;45.00
67557;DHT22;54387;53.526;49.300;2022-12-10T09:06:35;-4.80;45.00
67557;DHT22;54387;53.526;49.300;2022-12-10T09:09:02;-4.70;44.70
67557;DHT22;54387;53.526;49.300;2022-12-10T09:11:29;-4.60;44.20
67557;DHT22;54387;53.526;49.300;2022-12-10T09:13:56;-4.60;43.90
67557;DHT22;54387;53.526;49.300;2022-12-10T09:16:27;-4.60;43.60
67557;DHT22;54387;53.526;49.300;2022-12-10T09:18:54;-4.50;43.20
67557;DHT22;54387;53.526;49.300;2022-12-10T09:21:20;-4.40;43.00
67557;DHT22;54387;53.526;49.300;2022-12-10T09:23:46;-4.40;42.80
67557;DHT22;54387;53.526;49.300;2022-12-10T09:26:13;-4.30;42.60
67557;DHT22;54387;53.526;49.300;2022-12-10T09:28:40;-4.20;42.40
67557;DHT22;54387;53.526;49.300;2022-12-10T09:31:06;-4.10;42.20
67557;DHT22;54387;53.526;49.300;2022-12-10T09:33:37;-4.10;41.60
67557;DHT22;54387;53.526;49.300;2022-12-10T09:36:04;-4.00;41.60
67557;DHT22;54387;53.526;49.300;2022-12-10T09:38:36;-4.00;41.20
67557;DHT22;54387;53.526;49.300;2022-12-10T09:41:46;-3.90;41.50
67557;DHT22;54387;53.526;49.300;2022-12-10T09:51:48;-3.80;41.30
67557;DHT22;54387;53.526;49.300;2022-12-10T09:54:18;-3.80;40.50
67557;DHT22;54387;53.526;49.300;2022-12-10T09:56:46;-3.90;40.50
67557;DHT22;54387;53.526;49.300;2022-12-10T09:59:16;-3.90;40.80
67557;DHT22;54387;53.526;49.300;2022-12-10T10:01:45;-3.70;40.90
67557;DHT22;54387;53.526;49.300;2022-12-10T10:04:12;-3.60;40.60
67557;DHT22;54387;53.526;49.300;2022-12-10T10:06:38;-3.60;40.50
67557;DHT22;54387;53.526;49.300;2022-12-10T10:09:05;-3.50;40.50
67557;DHT22;54387;53.526;49.300;2022-12-10T10:11:33;-3.50;40.30
67557;DHT22;54387;53.526;49.300;2022-12-10T10:14:01;-3.50;40.50
67557;DHT22;54387;53.526;49.300;2022-12-10T10:16:43;-3.50;40.50
67557;DHT22;54387;53.526;49.300;2022-12-10T10:19:16;-3.40;39.90
67557;DHT22;54387;53.526;49.300;2022-12-10T10:21:44;-3.50;39.60
67557;DHT22;54387;53.526;49.300;2022-12-10T10:24:15;-3.60;39.80
67557;DHT22;54387;53.526;49.300;2022-12-10T10:26:42;-3.50;40.10
67557;DHT22;54387;53.526;49.300;2022-12-10T10:29:09;-3.50;40.20
67557;DHT22;54387;53.526;49.300;2022-12-10T10:31:38;-3.50;40.00
67557;DHT22;54387;53.526;49.300;2022-12-10T10:34:05;-3.50;40.00
67557;DHT22;54387;53.526;49.300;2022-12-10T10:36:32;-3.40;40.20
67557;DHT22;54387;53.526;49.300;2022-12-10T10:39:10;-3.30;40.10
67557;DHT22;54387;53.526;49.300;2022-12-10T10:41:37;-3.30;39.40
67557;DHT22;54387;53.526;49.300;2022-12-10T10:44:05;-3.20;39.40
67557;DHT22;54387;53.526;49.300;2022-12-10T10:46:38;-3.10;38.50
67557;DHT22;54387;53.526;49.300;2022-12-10T10:52:06;-3.00;38.30
67557;DHT22;54387;53.526;49.300;2022-12-10T10:54:41;-3.10;38.70
67557;DHT22;54387;53.526;49.300;2022-12-10T10:59:54;-3.30;39.40
67557;DHT22;54387;53.526;49.300;2022-12-10T11:02:30;-3.40;39.20
67557;DHT22;54387;53.526;49.300;2022-12-10T11:04:56;-3.50;39.60
67557;DHT22;54387;53.526;49.300;2022-12-10T11:07:33;-3.60;39.80
67557;DHT22;54387;53.526;49.300;2022-12-10T11:10:00;-3.70;40.00
67557;DHT22;54387;53.526;49.300;2022-12-10T11:12:39;-3.80;40.00
67557;DHT22;54387;53.526;49.300;2022-12-10T11:15:24;-3.90;39.90
67557;DHT22;54387;53.526;49.300;2022-12-10T11:17:52;-3.90;40.20
67557;DHT22;54387;53.526;49.300;2022-12-10T11:20:30;-3.90;40.50
67557;DHT22;54387;53.526;49.300;2022-12-10T11:22:57;-4.00;40.60
67557;DHT22;54387;53.526;49.300;2022-12-10T11:30:40;-4.00;41.10
67557;DHT22;54387;53.526;49.300;2022-12-10T11:33:27;-4.10;41.10
67557;DHT22;54387;53.526;49.300;2022-12-10T11:38:31;-4.20;41.40
67557;DHT22;54387;53.526;49.300;2022-12-10T11:41:04;-4.20;41.60
67557;DHT22;54387;53.526;49.300;2022-12-10T11:43:37;-4.20;41.70
67557;DHT22;54387;53.526;49.300;2022-12-10T11:51:08;-4.20;43.30
67557;DHT22;54387;53.526;49.300;2022-12-10T12:01:40;-4.30;42.60
67557;DHT22;54387;53.526;49.300;2022-12-10T12:07:10;-4.40;42.50
67557;DHT22;54387;53.526;49.300;2022-12-10T12:14:38;-4.50;43.20
67557;DHT22;54387;53.526;49.300;2022-12-10T12:17:23;-4.40;43.40
67557;DHT22;54387;53.526;49.300;2022-12-10T12:19:51;-4.50;43.40
67557;DHT22;54387;53.526;49.300;2022-12-10T12:24:47;-4.50;43.60
67557;DHT22;54387;53.526;49.300;2022-12-10T12:27:58;-4.50;43.60
67557;DHT22;54387;53.526;49.300;2022-12-10T12:35:10;-4.60;44.20
67557;DHT22;54387;53.526;49.300;2022-12-10T12:37:40;-4.60;44.30
67557;DHT22;54387;53.526;49.300;2022-12-10T12:40:11;-4.60;44.40
67557;DHT22;54387;53.526;49.300;2022-12-10T12:42:41;-4.60;44.50
67557;DHT22;54387;53.526;49.300;2022-12-10T12:45:16;-4.70;44.50
67557;DHT22;54387;53.526;49.300;2022-12-10T12:47:53;-4.70;45.60
67557;DHT22;54387;53.526;49.300;2022-12-10T12:50:37;-4.70;44.80
67557;DHT22;54387;53.526;49.300;2022-12-10T12:53:08;-4.70;45.00
67557;DHT22;54387;53.526;49.300;2022-12-10T12:58:31;-4.70;45.20
67557;DHT22;54387;53.526;49.300;2022-12-10T13:01:13;-4.80;45.30
67557;DHT22;54387;53.526;49.300;2022-12-10T13:03:43;-4.80;45.50
67557;DHT22;54387;53.526;49.300;2022-12-10T13:08:46;-4.80;45.60
67557;DHT22;54387;53.526;49.300;2022-12-10T13:13:39;-4.90;45.90
67557;DHT22;54387;53.526;49.300;2022-12-10T13:18:53;-4.90;46.20
67557;DHT22;54387;53.526;49.300;2022-12-10T13:21:36;-4.90;46.20
67557;DHT22;54387;53.526;49.300;2022-12-10T13:24:42;-4.90;46.30
67557;DHT22;54387;53.526;49.300;2022-12-10T13:37:34;-4.90;45.80
67557;DHT22;54387;53.526;49.300;2022-12-10T13:42:35;-4.80;45.50
67557;DHT22;54387;53.526;49.300;2022-12-10T13:47:47;-4.90;45.50
67557;DHT22;54387;53.526;49.300;2022-12-10T13:57:56;-4.80;45.40
67557;DHT22;54387;53.526;49.300;2022-12-10T14:00:31;-4.80;45.40
67557;DHT22;54387;53.526;49.300;2022-12-10T14:08:23;-4.90;45.40
67557;DHT22;54387;53.526;49.300;2022-12-10T14:10:51;-4.90;45.50
67557;DHT22;54387;53.526;49.300;2022-12-10T14:13:19;-4.90;46.40
67557;DHT22;54387;53.526;49.300;2022-12-10T14:18:14;-4.90;45.40
67557;DHT22;54387;53.526;49.300;2022-12-10T14:20:44;-4.90;45.50
67557;DHT22;54387;53.526;49.300;2022-12-10T14:23:27;-4.90;45.50
67557;DHT22;54387;53.526;49.300;2022-12-10T14:28:31;-5.00;45.40
67557;DHT22;54387;53.526;49.300;2022-12-10T14:30:59;-5.00;45.70
67557;DHT22;54387;53.526;49.300;2022-12-10T14:33:25;-5.00;45.90
67557;DHT22;54387;53.526;49.300;2022-12-10T14:35:51;-5.00;45.90
67557;DHT22;54387;53.526;49.300;2022-12-10T14:40:44;-5.10;45.90
67557;DHT22;54387;53.526;49.300;2022-12-10T14:43:20;-5.20;45.80
67557;DHT22;54387;53.526;49.300;2022-12-10T14:45:51;-5.20;45.80
67557;DHT22;54387;53.526;49.300;2022-12-10T14:48:19;-5.30;45.80
67557;DHT22;54387;53.526;49.300;2022-12-10T14:50:45;-5.30;46.00
67557;DHT22;54387;53.526;49.300;2022-12-10T14:53:16;-5.40;46.10
67557;DHT22;54387;53.526;49.300;2022-12-10T14:55:43;-5.40;46.30
67557;DHT22;54387;53.526;49.300;2022-12-10T14:58:14;-5.40;46.40
67557;DHT22;54387;53.526;49.300;2022-12-10T15:00:41;-5.50;46.30
67557;DHT22;54387;53.526;49.300;2022-12-10T15:03:08;-5.50;46.50
67557;DHT22;54387;53.526;49.300;2022-12-10T15:05:35;-5.50;46.60
67557;DHT22;54387;53.526;49.300;2022-12-10T15:08:13;-5.60;46.70
67557;DHT22;54387;53.526;49.300;2022-12-10T15:10:41;-5.60;46.70
67557;DHT22;54387;53.526;49.300;2022-12-10T15:13:16;-5.60;46.80
67557;DHT22;54387;53.526;49.300;2022-12-10T15:15:45;-5.70;46.80
67557;DHT22;54387;53.526;49.300;2022-12-10T15:18:18;-5.70;46.80
67557;DHT22;54387;53.526;49.300;2022-12-10T15:20:45;-5.70;46.80
67557;DHT22;54387;53.526;49.300;2022-12-10T15:28:26;-5.70;46.50
67557;DHT22;54387;53.526;49.300;2022-12-10T15:30:57;-5.70;46.50
67557;DHT22;54387;53.526;49.300;2022-12-10T15:35:49;-5.70;46.50
67557;DHT22;54387;53.526;49.300;2022-12-10T15:38:19;-5.70;46.50
67557;DHT22;54387;53.526;49.300;2022-12-10T15:40:45;-5.70;46.60
67557;DHT22;54387;53.526;49.300;2022-12-10T15:45:48;-5.70;46.80
67557;DHT22;54387;53.526;49.300;2022-12-10T15:48:14;-5.70;46.90
67557;DHT22;54387;53.526;49.300;2022-12-10T15:50:42;-5.70;46.80
67557;DHT22;54387;53.526;49.300;2022-12-10T15:53:12;-5.70;46.90
67557;DHT22;54387;53.526;49.300;2022-12-10T15:55:39;-5.70;47.00
67557;DHT22;54387;53.526;49.300;2022-12-10T15:58:14;-5.70;47.10
67557;DHT22;54387;53.526;49.300;2022-12-10T16:00:40;-5.70;47.30
67557;DHT22;54387;53.526;49.300;2022-12-10T16:03:13;-5.70;47.30
67557;DHT22;54387;53.526;49.300;2022-12-10T16:05:40;-5.70;47.10
67557;DHT22;54387;53.526;49.300;2022-12-10T16:08:12;-5.70;47.10
67557;DHT22;54387;53.526;49.300;2022-12-10T16:10:39;-5.70;47.10
67557;DHT22;54387;53.526;49.300;2022-12-10T16:13:06;-5.80;47.20
67557;DHT22;54387;53.526;49.300;2022-12-10T16:15:38;-5.80;47.20
67557;DHT22;54387;53.526;49.300;2022-12-10T16:18:07;-5.80;47.20
67557;DHT22;54387;53.526;49.300;2022-12-10T16:20:34;-5.80;47.40
67557;DHT22;54387;53.526;49.300;2022-12-10T16:23:00;-5.80;47.40
67557;DHT22;54387;53.526;49.300;2022-12-10T16:25:27;-5.90;47.30
67557;DHT22;54387;53.526;49.300;2022-12-10T16:27:53;-5.90;47.40
67557;DHT22;54387;53.526;49.300;2022-12-10T16:30:21;-5.90;47.50
67557;DHT22;54387;53.526;49.300;2022-12-10T16:32:47;-5.90;47.70
67557;DHT22;54387;53.526;49.300;2022-12-10T16:35:14;-5.90;47.70
67557;DHT22;54387;53.526;49.300;2022-12-10T16:37:41;-5.90;47.60
67557;DHT22;54387;53.526;49.300;2022-12-10T16:40:07;-5.90;47.70
67557;DHT22;54387;53.526;49.300;2022-12-10T16:42:33;-5.80;47.90
67557;DHT22;54387;53.526;49.300;2022-12-10T16:44:59;-5.80;47.70
67557;DHT22;54387;53.526;49.300;2022-12-10T16:47:25;-5.70;47.60
67557;DHT22;54387;53.526;49.300;2022-12-10T16:49:53;-5.60;47.60
67557;DHT22;54387;53.526;49.300;2022-12-10T16:52:19;-5.40;47.60
67557;DHT22;54387;53.526;49.300;2022-12-10T16:54:45;-5.30;47.40
67557;DHT22;54387;53.526;49.300;2022-12-10T16:57:14;-5.20;47.00
67557;DHT22;54387;53.526;49.300;2022-12-10T16:59:41;-5.10;46.80
67557;DHT22;54387;53.526;49.300;2022-12-10T17:02:17;-5.00;46.80
67557;DHT22;54387;53.526;49.300;2022-12-10T17:04:43;-5.00;46.50
67557;DHT22;54387;53.526;49.300;2022-12-10T17:07:10;-4.90;46.20
67557;DHT22;54387;53.526;49.300;2022-12-10T17:09:39;-4.90;46.00
67557;DHT22;54387;53.526;49.300;2022-12-10T17:12:05;-4.80;45.80
67557;DHT22;54387;53.526;49.300;2022-12-10T17:14:39;-4.80;45.20
67557;DHT22;54387;53.526;49.300;2022-12-10T17:17:06;-4.80;45.20
67557;DHT22;54387;53.526;49.300;2022-12-10T17:19:34;-4.90;45.00
67557;DHT22;54387;53.526;49.300;2022-12-10T17:22:06;-4.90;44.90
67557;DHT22;54387;53.526;49.300;2022-12-10T17:24:39;-4.90;44.70
67557;DHT22;54387;53.526;49.300;2022-12-10T17:27:13;-4.90;44.60
67557;DHT22;54387;53.526;49.300;2022-12-10T17:29:45;-4.90;44.60